sensor_id;sensor_type;location;lat;lon;timestamp;P1;durP1;ratioP1;P2;durP2;ratioP2
10461;SDS011;5278;42.656;23.374;2023-07-31T00:00:15;3.10;;;2.80;;
10461;SDS011;5278;42.656;23.374;2023-07-31T00:02:42;3.53;;;2.93;;
10461;SDS011;5278;42.656;23.374;2023-07-31T00:05:09;3.20;;;2.90;;
10461;SDS011;5278;42.656;23.374;2023-07-31T00:07:36;3.10;;;2.90;;
10461;SDS011;5278;42.656;23.374;2023-07-31T00:10:03;3.97;;;3.57;;
10461;SDS011;5278;42.656;23.374;2023-07-31T00:12:32;3.23;;;3.00;;
10461;SDS011;5278;42.656;23.374;2023-07-31T00:14:59;3.33;;;3.03;;
10461;SDS011;5278;42.656;23.374;2023-07-31T00:17:27;5.17;;;3.50;;
10461;SDS011;5278;42.656;23.374;2023-07-31T00:19:54;4.10;;;3.10;;
10461;SDS011;5278;42.656;23.374;2023-07-31T00:22:22;3.47;;;3.17;;
10461;SDS011;5278;42.656;23.374;2023-07-31T00:24:49;3.50;;;3.20;;
10461;SDS011;5278;42.656;23.374;2023-07-31T00:27:17;3.13;;;2.77;;
10461;SDS011;5278;42.656;23.374;2023-07-31T00:29:45;3.30;;;3.00;;
10461;SDS011;5278;42.656;23.374;2023-07-31T00:32:12;3.47;;;2.73;;
10461;SDS011;5278;42.656;23.374;2023-07-31T00:34:39;3.90;;;2.90;;
10461;SDS011;5278;42.656;23.374;2023-07-31T00:37:06;3.47;;;3.13;;
10461;SDS011;5278;42.656;23.374;2023-07-31T00:39:33;5.37;;;2.97;;
10461;SDS011;5278;42.656;23.374;2023-07-31T00:42:01;4.20;;;3.30;;
10461;SDS011;5278;42.656;23.374;2023-07-31T00:44:28;3.10;;;2.90;;
10461;SDS011;5278;42.656;23.374;2023-07-31T00:46:56;2.87;;;2.67;;
10461;SDS011;5278;42.656;23.374;2023-07-31T00:49:24;3.77;;;3.47;;
10461;SDS011;5278;42.656;23.374;2023-07-31T00:51:52;3.43;;;3.13;;
10461;SDS011;5278;42.656;23.374;2023-07-31T00:54:22;3.70;;;3.40;;
10461;SDS011;5278;42.656;23.374;2023-07-31T00:56:49;4.03;;;3.73;;
10461;SDS011;5278;42.656;23.374;2023-07-31T00:59:19;3.57;;;3.17;;
10461;SDS011;5278;42.656;23.374;2023-07-31T01:01:45;4.20;;;3.70;;
10461;SDS011;5278;42.656;23.374;2023-07-31T01:04:14;3.90;;;3.60;;
10461;SDS011;5278;42.656;23.374;2023-07-31T01:06:44;5.17;;;4.47;;
10461;SDS011;5278;42.656;23.374;2023-07-31T01:09:20;5.23;;;4.83;;
10461;SDS011;5278;42.656;23.374;2023-07-31T01:12:01;5.20;;;4.70;;
10461;SDS011;5278;42.656;23.374;2023-07-31T01:14:29;4.80;;;4.40;;
10461;SDS011;5278;42.656;23.374;2023-07-31T01:16:56;8.17;;;4.57;;
10461;SDS011;5278;42.656;23.374;2023-07-31T01:19:25;5.93;;;5.37;;
10461;SDS011;5278;42.656;23.374;2023-07-31T01:21:58;6.43;;;5.83;;
10461;SDS011;5278;42.656;23.374;2023-07-31T01:24:48;5.73;;;5.23;;
10461;SDS011;5278;42.656;23.374;2023-07-31T01:27:28;6.03;;;5.53;;
10461;SDS011;5278;42.656;23.374;2023-07-31T01:29:59;6.57;;;5.97;;
10461;SDS011;5278;42.656;23.374;2023-07-31T01:32:35;7.30;;;6.70;;
10461;SDS011;5278;42.656;23.374;2023-07-31T01:35:06;8.33;;;7.53;;
10461;SDS011;5278;42.656;23.374;2023-07-31T01:37:34;7.57;;;6.87;;
10461;SDS011;5278;42.656;23.374;2023-07-31T01:40:01;8.07;;;7.40;;
10461;SDS011;5278;42.656;23.374;2023-07-31T01:42:30;8.07;;;7.37;;
10461;SDS011;5278;42.656;23.374;2023-07-31T01:44:57;9.37;;;8.50;;
10461;SDS011;5278;42.656;23.374;2023-07-31T01:47:24;7.93;;;7.20;;
10461;SDS011;5278;42.656;23.374;2023-07-31T01:49:51;9.60;;;8.80;;
10461;SDS011;5278;42.656;23.374;2023-07-31T01:52:18;11.13;;;9.83;;
10461;SDS011;5278;42.656;23.374;2023-07-31T01:54:44;10.57;;;9.57;;
10461;SDS011;5278;42.656;23.374;2023-07-31T01:57:11;11.03;;;10.03;;
10461;SDS011;5278;42.656;23.374;2023-07-31T01:59:40;12.33;;;11.13;;
10461;SDS011;5278;42.656;23.374;2023-07-31T02:02:07;13.17;;;11.97;;
10461;SDS011;5278;42.656;23.374;2023-07-31T02:04:34;12.67;;;11.43;;
10461;SDS011;5278;42.656;23.374;2023-07-31T02:07:00;14.07;;;12.77;;
10461;SDS011;5278;42.656;23.374;2023-07-31T02:09:27;14.33;;;12.93;;
10461;SDS011;5278;42.656;23.374;2023-07-31T02:11:54;13.97;;;12.53;;
10461;SDS011;5278;42.656;23.374;2023-07-31T02:14:21;13.97;;;12.67;;
10461;SDS011;5278;42.656;23.374;2023-07-31T02:16:51;14.17;;;12.87;;
10461;SDS011;5278;42.656;23.374;2023-07-31T02:19:18;13.77;;;12.47;;
10461;SDS011;5278;42.656;23.374;2023-07-31T02:21:45;15.10;;;13.70;;
10461;SDS011;5278;42.656;23.374;2023-07-31T02:24:12;15.73;;;14.13;;
10461;SDS011;5278;42.656;23.374;2023-07-31T02:26:39;14.93;;;13.43;;
10461;SDS011;5278;42.656;23.374;2023-07-31T02:29:07;15.30;;;13.80;;
10461;SDS011;5278;42.656;23.374;2023-07-31T02:31:34;14.93;;;13.53;;
10461;SDS011;5278;42.656;23.374;2023-07-31T02:34:03;15.53;;;13.93;;
10461;SDS011;5278;42.656;23.374;2023-07-31T02:36:30;14.63;;;13.23;;
10461;SDS011;5278;42.656;23.374;2023-07-31T02:38:57;15.63;;;14.13;;
10461;SDS011;5278;42.656;23.374;2023-07-31T02:41:24;14.17;;;12.87;;
10461;SDS011;5278;42.656;23.374;2023-07-31T02:43:51;15.50;;;14.00;;
10461;SDS011;5278;42.656;23.374;2023-07-31T02:46:18;17.77;;;14.40;;
10461;SDS011;5278;42.656;23.374;2023-07-31T02:48:49;15.37;;;13.87;;
10461;SDS011;5278;42.656;23.374;2023-07-31T02:51:17;15.70;;;14.10;;
10461;SDS011;5278;42.656;23.374;2023-07-31T02:53:46;15.67;;;14.17;;
10461;SDS011;5278;42.656;23.374;2023-07-31T02:56:13;14.87;;;13.47;;
10461;SDS011;5278;42.656;23.374;2023-07-31T02:58:40;15.93;;;14.27;;
10461;SDS011;5278;42.656;23.374;2023-07-31T03:01:07;15.30;;;13.90;;
10461;SDS011;5278;42.656;23.374;2023-07-31T03:03:34;15.37;;;13.57;;
10461;SDS011;5278;42.656;23.374;2023-07-31T03:06:00;17.90;;;14.87;;
10461;SDS011;5278;42.656;23.374;2023-07-31T03:08:29;15.90;;;14.30;;
10461;SDS011;5278;42.656;23.374;2023-07-31T03:10:56;15.30;;;13.90;;
10461;SDS011;5278;42.656;23.374;2023-07-31T03:13:23;15.77;;;13.90;;
10461;SDS011;5278;42.656;23.374;2023-07-31T03:15:50;15.37;;;13.97;;
10461;SDS011;5278;42.656;23.374;2023-07-31T03:18:17;15.43;;;14.03;;
10461;SDS011;5278;42.656;23.374;2023-07-31T03:20:44;16.53;;;14.67;;
10461;SDS011;5278;42.656;23.374;2023-07-31T03:23:11;15.93;;;14.43;;
10461;SDS011;5278;42.656;23.374;2023-07-31T03:25:42;14.77;;;13.47;;
10461;SDS011;5278;42.656;23.374;2023-07-31T03:28:22;15.20;;;13.70;;
10461;SDS011;5278;42.656;23.374;2023-07-31T03:30:49;14.93;;;13.57;;
10461;SDS011;5278;42.656;23.374;2023-07-31T03:33:15;16.17;;;14.67;;
10461;SDS011;5278;42.656;23.374;2023-07-31T03:35:42;15.33;;;13.93;;
10461;SDS011;5278;42.656;23.374;2023-07-31T03:38:10;16.10;;;14.60;;
10461;SDS011;5278;42.656;23.374;2023-07-31T03:40:36;16.30;;;14.73;;
10461;SDS011;5278;42.656;23.374;2023-07-31T03:43:05;16.57;;;14.97;;
10461;SDS011;5278;42.656;23.374;2023-07-31T03:45:32;16.30;;;14.63;;
10461;SDS011;5278;42.656;23.374;2023-07-31T03:47:59;16.70;;;15.10;;
10461;SDS011;5278;42.656;23.374;2023-07-31T03:50:26;16.40;;;14.70;;
10461;SDS011;5278;42.656;23.374;2023-07-31T03:52:53;16.07;;;14.57;;
10461;SDS011;5278;42.656;23.374;2023-07-31T03:55:20;17.57;;;15.77;;
10461;SDS011;5278;42.656;23.374;2023-07-31T03:57:48;16.43;;;14.93;;
10461;SDS011;5278;42.656;23.374;2023-07-31T04:00:16;17.07;;;15.37;;
10461;SDS011;5278;42.656;23.374;2023-07-31T04:02:43;17.73;;;16.03;;
10461;SDS011;5278;42.656;23.374;2023-07-31T04:05:10;17.83;;;16.03;;
10461;SDS011;5278;42.656;23.374;2023-07-31T04:07:37;17.57;;;15.67;;
10461;SDS011;5278;42.656;23.374;2023-07-31T04:10:04;16.77;;;14.97;;
10461;SDS011;5278;42.656;23.374;2023-07-31T04:12:32;18.23;;;16.30;;
10461;SDS011;5278;42.656;23.374;2023-07-31T04:14:59;17.03;;;15.30;;
10461;SDS011;5278;42.656;23.374;2023-07-31T04:17:27;18.63;;;16.67;;
10461;SDS011;5278;42.656;23.374;2023-07-31T04:19:54;19.47;;;17.47;;
10461;SDS011;5278;42.656;23.374;2023-07-31T04:22:21;19.20;;;17.27;;
10461;SDS011;5278;42.656;23.374;2023-07-31T04:24:49;18.53;;;16.63;;
10461;SDS011;5278;42.656;23.374;2023-07-31T04:27:17;18.40;;;16.43;;
10461;SDS011;5278;42.656;23.374;2023-07-31T04:29:45;18.07;;;15.83;;
10461;SDS011;5278;42.656;23.374;2023-07-31T04:32:13;18.00;;;16.10;;
10461;SDS011;5278;42.656;23.374;2023-07-31T04:34:43;18.57;;;16.73;;
10461;SDS011;5278;42.656;23.374;2023-07-31T04:37:10;19.43;;;17.40;;
10461;SDS011;5278;42.656;23.374;2023-07-31T04:39:37;18.27;;;16.13;;
10461;SDS011;5278;42.656;23.374;2023-07-31T04:42:04;18.60;;;16.73;;
10461;SDS011;5278;42.656;23.374;2023-07-31T04:44:31;18.33;;;16.50;;
10461;SDS011;5278;42.656;23.374;2023-07-31T04:46:58;19.17;;;17.13;;
10461;SDS011;5278;42.656;23.374;2023-07-31T04:49:25;16.97;;;15.27;;
10461;SDS011;5278;42.656;23.374;2023-07-31T04:51:53;17.13;;;15.43;;
10461;SDS011;5278;42.656;23.374;2023-07-31T04:54:20;17.70;;;15.80;;
10461;SDS011;5278;42.656;23.374;2023-07-31T04:56:47;17.97;;;15.73;;
10461;SDS011;5278;42.656;23.374;2023-07-31T04:59:14;17.17;;;15.13;;
10461;SDS011;5278;42.656;23.374;2023-07-31T05:01:41;18.17;;;16.07;;
10461;SDS011;5278;42.656;23.374;2023-07-31T05:04:10;17.77;;;15.90;;
10461;SDS011;5278;42.656;23.374;2023-07-31T05:06:40;16.90;;;15.30;;
10461;SDS011;5278;42.656;23.374;2023-07-31T05:09:10;18.00;;;16.10;;
10461;SDS011;5278;42.656;23.374;2023-07-31T05:11:37;16.73;;;15.03;;
10461;SDS011;5278;42.656;23.374;2023-07-31T05:14:05;17.23;;;15.50;;
10461;SDS011;5278;42.656;23.374;2023-07-31T05:16:32;16.87;;;15.17;;
10461;SDS011;5278;42.656;23.374;2023-07-31T05:18:59;16.43;;;14.87;;
10461;SDS011;5278;42.656;23.374;2023-07-31T05:21:26;16.17;;;14.53;;
10461;SDS011;5278;42.656;23.374;2023-07-31T05:23:53;15.17;;;13.67;;
10461;SDS011;5278;42.656;23.374;2023-07-31T05:26:21;15.67;;;14.20;;
10461;SDS011;5278;42.656;23.374;2023-07-31T05:28:48;15.60;;;13.97;;
10461;SDS011;5278;42.656;23.374;2023-07-31T05:31:15;14.60;;;13.10;;
10461;SDS011;5278;42.656;23.374;2023-07-31T05:33:42;14.60;;;13.30;;
10461;SDS011;5278;42.656;23.374;2023-07-31T05:36:10;13.80;;;12.50;;
10461;SDS011;5278;42.656;23.374;2023-07-31T05:38:37;13.67;;;12.30;;
10461;SDS011;5278;42.656;23.374;2023-07-31T05:41:04;13.17;;;11.83;;
10461;SDS011;5278;42.656;23.374;2023-07-31T05:43:35;13.33;;;11.93;;
10461;SDS011;5278;42.656;23.374;2023-07-31T05:46:03;12.43;;;11.33;;
10461;SDS011;5278;42.656;23.374;2023-07-31T05:48:29;11.97;;;10.70;;
10461;SDS011;5278;42.656;23.374;2023-07-31T05:50:57;12.00;;;10.80;;
10461;SDS011;5278;42.656;23.374;2023-07-31T05:53:24;11.60;;;10.40;;
10461;SDS011;5278;42.656;23.374;2023-07-31T05:55:51;10.00;;;9.10;;
10461;SDS011;5278;42.656;23.374;2023-07-31T05:58:18;9.50;;;8.67;;
10461;SDS011;5278;42.656;23.374;2023-07-31T06:00:46;9.97;;;8.97;;
10461;SDS011;5278;42.656;23.374;2023-07-31T06:03:13;8.97;;;8.17;;
10461;SDS011;5278;42.656;23.374;2023-07-31T06:05:40;9.20;;;8.30;;
10461;SDS011;5278;42.656;23.374;2023-07-31T06:08:07;8.93;;;8.17;;
10461;SDS011;5278;42.656;23.374;2023-07-31T06:10:34;9.07;;;8.37;;
10461;SDS011;5278;42.656;23.374;2023-07-31T06:13:01;8.37;;;7.63;;
10461;SDS011;5278;42.656;23.374;2023-07-31T06:15:28;8.33;;;7.53;;
10461;SDS011;5278;42.656;23.374;2023-07-31T06:17:56;7.07;;;6.47;;
10461;SDS011;5278;42.656;23.374;2023-07-31T06:20:26;6.73;;;6.13;;
10461;SDS011;5278;42.656;23.374;2023-07-31T06:22:54;7.87;;;7.20;;
10461;SDS011;5278;42.656;23.374;2023-07-31T06:25:21;6.40;;;5.80;;
10461;SDS011;5278;42.656;23.374;2023-07-31T06:27:48;6.70;;;6.10;;
10461;SDS011;5278;42.656;23.374;2023-07-31T06:30:14;5.37;;;4.87;;
10461;SDS011;5278;42.656;23.374;2023-07-31T06:32:42;6.03;;;4.53;;
10461;SDS011;5278;42.656;23.374;2023-07-31T06:35:10;5.63;;;5.10;;
10461;SDS011;5278;42.656;23.374;2023-07-31T06:37:37;4.93;;;4.40;;
10461;SDS011;5278;42.656;23.374;2023-07-31T06:40:05;5.20;;;4.23;;
10461;SDS011;5278;42.656;23.374;2023-07-31T06:42:34;4.73;;;4.30;;
10461;SDS011;5278;42.656;23.374;2023-07-31T06:45:01;4.73;;;4.33;;
10461;SDS011;5278;42.656;23.374;2023-07-31T06:47:28;4.77;;;4.13;;
10461;SDS011;5278;42.656;23.374;2023-07-31T06:49:55;4.30;;;3.90;;
10461;SDS011;5278;42.656;23.374;2023-07-31T06:52:24;6.27;;;4.60;;
10461;SDS011;5278;42.656;23.374;2023-07-31T06:55:00;5.57;;;5.07;;
10461;SDS011;5278;42.656;23.374;2023-07-31T06:57:28;6.03;;;4.97;;
10461;SDS011;5278;42.656;23.374;2023-07-31T06:59:56;4.37;;;3.97;;
10461;SDS011;5278;42.656;23.374;2023-07-31T07:02:23;5.17;;;4.67;;
10461;SDS011;5278;42.656;23.374;2023-07-31T07:04:50;4.77;;;4.37;;
10461;SDS011;5278;42.656;23.374;2023-07-31T07:07:18;5.10;;;4.10;;
10461;SDS011;5278;42.656;23.374;2023-07-31T07:09:46;4.07;;;3.57;;
10461;SDS011;5278;42.656;23.374;2023-07-31T07:12:13;5.27;;;3.80;;
10461;SDS011;5278;42.656;23.374;2023-07-31T07:14:40;4.88;;;3.47;;
10461;SDS011;5278;42.656;23.374;2023-07-31T07:17:07;4.30;;;3.70;;
10461;SDS011;5278;42.656;23.374;2023-07-31T07:19:34;3.75;;;3.45;;
10461;SDS011;5278;42.656;23.374;2023-07-31T07:22:01;3.95;;;3.65;;
10461;SDS011;5278;42.656;23.374;2023-07-31T07:24:28;3.92;;;3.53;;
10461;SDS011;5278;42.656;23.374;2023-07-31T07:26:58;4.60;;;4.18;;
10461;SDS011;5278;42.656;23.374;2023-07-31T07:29:25;4.57;;;3.60;;
10461;SDS011;5278;42.656;23.374;2023-07-31T07:31:52;3.60;;;3.30;;
10461;SDS011;5278;42.656;23.374;2023-07-31T07:34:19;4.95;;;3.15;;
10461;SDS011;5278;42.656;23.374;2023-07-31T07:36:46;3.20;;;2.95;;
10461;SDS011;5278;42.656;23.374;2023-07-31T07:39:12;3.97;;;3.67;;
10461;SDS011;5278;42.656;23.374;2023-07-31T07:41:40;5.05;;;3.63;;
10461;SDS011;5278;42.656;23.374;2023-07-31T07:44:09;3.47;;;3.17;;
10461;SDS011;5278;42.656;23.374;2023-07-31T07:46:36;4.65;;;3.55;;
10461;SDS011;5278;42.656;23.374;2023-07-31T07:49:03;4.03;;;3.72;;
10461;SDS011;5278;42.656;23.374;2023-07-31T07:51:30;4.63;;;3.60;;
10461;SDS011;5278;42.656;23.374;2023-07-31T07:53:58;4.57;;;3.50;;
10461;SDS011;5278;42.656;23.374;2023-07-31T07:56:25;3.42;;;3.13;;
10461;SDS011;5278;42.656;23.374;2023-07-31T07:58:53;3.92;;;3.53;;
10461;SDS011;5278;42.656;23.374;2023-07-31T08:01:23;4.00;;;3.63;;
10461;SDS011;5278;42.656;23.374;2023-07-31T08:03:50;3.80;;;3.03;;
10461;SDS011;5278;42.656;23.374;2023-07-31T08:06:17;5.93;;;3.25;;
10461;SDS011;5278;42.656;23.374;2023-07-31T08:08:44;6.28;;;3.25;;
10461;SDS011;5278;42.656;23.374;2023-07-31T08:11:11;3.20;;;2.80;;
10461;SDS011;5278;42.656;23.374;2023-07-31T08:13:39;3.28;;;2.97;;
10461;SDS011;5278;42.656;23.374;2023-07-31T08:16:05;3.83;;;3.05;;
10461;SDS011;5278;42.656;23.374;2023-07-31T08:18:35;3.15;;;2.78;;
10461;SDS011;5278;42.656;23.374;2023-07-31T08:21:02;5.22;;;3.13;;
10461;SDS011;5278;42.656;23.374;2023-07-31T08:23:29;3.17;;;2.83;;
10461;SDS011;5278;42.656;23.374;2023-07-31T08:25:56;4.38;;;3.22;;
10461;SDS011;5278;42.656;23.374;2023-07-31T08:28:24;3.92;;;3.58;;
10461;SDS011;5278;42.656;23.374;2023-07-31T08:30:51;4.53;;;3.50;;
10461;SDS011;5278;42.656;23.374;2023-07-31T08:33:17;3.20;;;2.90;;
10461;SDS011;5278;42.656;23.374;2023-07-31T08:35:46;3.05;;;2.85;;
10461;SDS011;5278;42.656;23.374;2023-07-31T08:38:13;3.53;;;3.22;;
10461;SDS011;5278;42.656;23.374;2023-07-31T08:40:41;7.57;;;3.35;;
10461;SDS011;5278;42.656;23.374;2023-07-31T08:43:08;6.38;;;3.72;;
10461;SDS011;5278;42.656;23.374;2023-07-31T08:45:35;3.88;;;3.45;;
10461;SDS011;5278;42.656;23.374;2023-07-31T08:48:03;4.32;;;3.03;;
10461;SDS011;5278;42.656;23.374;2023-07-31T08:50:30;3.65;;;3.35;;
10461;SDS011;5278;42.656;23.374;2023-07-31T08:52:59;5.22;;;3.50;;
10461;SDS011;5278;42.656;23.374;2023-07-31T08:55:26;4.85;;;3.40;;
10461;SDS011;5278;42.656;23.374;2023-07-31T08:57:54;5.75;;;3.13;;
10461;SDS011;5278;42.656;23.374;2023-07-31T09:00:22;3.08;;;2.78;;
10461;SDS011;5278;42.656;23.374;2023-07-31T09:02:52;5.15;;;2.95;;
10461;SDS011;5278;42.656;23.374;2023-07-31T09:05:24;3.00;;;2.60;;
10461;SDS011;5278;42.656;23.374;2023-07-31T09:07:54;4.45;;;3.22;;
10461;SDS011;5278;42.656;23.374;2023-07-31T09:10:24;4.53;;;3.20;;
10461;SDS011;5278;42.656;23.374;2023-07-31T09:12:51;3.47;;;3.17;;
10461;SDS011;5278;42.656;23.374;2023-07-31T09:15:18;4.03;;;3.63;;
10461;SDS011;5278;42.656;23.374;2023-07-31T09:17:46;5.05;;;3.65;;
10461;SDS011;5278;42.656;23.374;2023-07-31T09:20:13;5.22;;;3.05;;
10461;SDS011;5278;42.656;23.374;2023-07-31T09:22:42;3.40;;;2.92;;
10461;SDS011;5278;42.656;23.374;2023-07-31T09:25:16;3.78;;;3.00;;
10461;SDS011;5278;42.656;23.374;2023-07-31T09:27:48;4.20;;;3.35;;
10461;SDS011;5278;42.656;23.374;2023-07-31T09:30:16;5.78;;;3.40;;
10461;SDS011;5278;42.656;23.374;2023-07-31T09:32:44;3.33;;;3.03;;
10461;SDS011;5278;42.656;23.374;2023-07-31T09:35:22;4.93;;;2.75;;
10461;SDS011;5278;42.656;23.374;2023-07-31T09:37:57;4.28;;;3.20;;
10461;SDS011;5278;42.656;23.374;2023-07-31T09:40:26;3.35;;;3.05;;
10461;SDS011;5278;42.656;23.374;2023-07-31T09:42:57;5.22;;;3.38;;
10461;SDS011;5278;42.656;23.374;2023-07-31T09:45:25;4.35;;;3.30;;
10461;SDS011;5278;42.656;23.374;2023-07-31T09:47:53;5.82;;;3.85;;
10461;SDS011;5278;42.656;23.374;2023-07-31T09:50:21;3.40;;;3.15;;
10461;SDS011;5278;42.656;23.374;2023-07-31T09:52:49;3.75;;;3.40;;
10461;SDS011;5278;42.656;23.374;2023-07-31T09:55:17;3.72;;;2.85;;
10461;SDS011;5278;42.656;23.374;2023-07-31T09:57:45;3.40;;;3.10;;
10461;SDS011;5278;42.656;23.374;2023-07-31T10:00:15;3.38;;;3.08;;
10461;SDS011;5278;42.656;23.374;2023-07-31T10:02:44;3.50;;;3.20;;
10461;SDS011;5278;42.656;23.374;2023-07-31T10:05:13;3.22;;;2.95;;
10461;SDS011;5278;42.656;23.374;2023-07-31T10:07:43;3.40;;;3.05;;
10461;SDS011;5278;42.656;23.374;2023-07-31T10:10:12;6.53;;;3.60;;
10461;SDS011;5278;42.656;23.374;2023-07-31T10:12:42;5.63;;;3.20;;
10461;SDS011;5278;42.656;23.374;2023-07-31T10:15:21;2.83;;;2.63;;
10461;SDS011;5278;42.656;23.374;2023-07-31T10:17:49;5.15;;;3.42;;
10461;SDS011;5278;42.656;23.374;2023-07-31T10:20:17;5.28;;;3.35;;
10461;SDS011;5278;42.656;23.374;2023-07-31T10:22:44;3.00;;;2.60;;
10461;SDS011;5278;42.656;23.374;2023-07-31T10:25:12;2.83;;;2.63;;
10461;SDS011;5278;42.656;23.374;2023-07-31T10:27:39;2.97;;;2.75;;
10461;SDS011;5278;42.656;23.374;2023-07-31T10:30:08;3.67;;;2.90;;
10461;SDS011;5278;42.656;23.374;2023-07-31T10:32:40;2.80;;;2.60;;
10461;SDS011;5278;42.656;23.374;2023-07-31T10:35:08;4.22;;;2.80;;
10461;SDS011;5278;42.656;23.374;2023-07-31T10:37:36;3.38;;;2.80;;
10461;SDS011;5278;42.656;23.374;2023-07-31T10:40:06;2.55;;;2.35;;
10461;SDS011;5278;42.656;23.374;2023-07-31T10:42:45;2.58;;;2.38;;
10461;SDS011;5278;42.656;23.374;2023-07-31T10:45:23;3.40;;;2.95;;
10461;SDS011;5278;42.656;23.374;2023-07-31T10:47:59;9.00;;;8.07;;
10461;SDS011;5278;42.656;23.374;2023-07-31T10:50:27;2.85;;;2.45;;
10461;SDS011;5278;42.656;23.374;2023-07-31T10:52:57;3.70;;;2.45;;
10461;SDS011;5278;42.656;23.374;2023-07-31T10:55:26;4.03;;;2.65;;
10461;SDS011;5278;42.656;23.374;2023-07-31T10:57:55;3.05;;;2.72;;
10461;SDS011;5278;42.656;23.374;2023-07-31T11:00:24;2.58;;;2.38;;
10461;SDS011;5278;42.656;23.374;2023-07-31T11:02:56;4.03;;;3.70;;
10461;SDS011;5278;42.656;23.374;2023-07-31T11:08:29;2.75;;;2.55;;
10461;SDS011;5278;42.656;23.374;2023-07-31T11:11:07;2.72;;;2.53;;
10461;SDS011;5278;42.656;23.374;2023-07-31T11:13:39;5.03;;;3.17;;
10461;SDS011;5278;42.656;23.374;2023-07-31T11:16:08;3.20;;;2.90;;
10461;SDS011;5278;42.656;23.374;2023-07-31T11:18:37;6.55;;;3.03;;
10461;SDS011;5278;42.656;23.374;2023-07-31T11:21:06;2.78;;;2.58;;
10461;SDS011;5278;42.656;23.374;2023-07-31T11:23:33;2.95;;;2.35;;
10461;SDS011;5278;42.656;23.374;2023-07-31T11:25:59;2.15;;;1.98;;
10461;SDS011;5278;42.656;23.374;2023-07-31T11:28:30;2.33;;;2.13;;
10461;SDS011;5278;42.656;23.374;2023-07-31T11:30:58;3.25;;;2.10;;
10461;SDS011;5278;42.656;23.374;2023-07-31T11:33:25;4.20;;;2.65;;
10461;SDS011;5278;42.656;23.374;2023-07-31T11:35:54;3.42;;;2.30;;
10461;SDS011;5278;42.656;23.374;2023-07-31T11:38:21;2.67;;;2.40;;
10461;SDS011;5278;42.656;23.374;2023-07-31T11:40:49;2.03;;;1.92;;
10461;SDS011;5278;42.656;23.374;2023-07-31T11:43:17;3.47;;;2.50;;
10461;SDS011;5278;42.656;23.374;2023-07-31T11:45:45;2.28;;;2.15;;
10461;SDS011;5278;42.656;23.374;2023-07-31T11:48:18;2.75;;;2.55;;
10461;SDS011;5278;42.656;23.374;2023-07-31T11:50:47;3.58;;;2.40;;
10461;SDS011;5278;42.656;23.374;2023-07-31T11:53:21;2.38;;;2.17;;
10461;SDS011;5278;42.656;23.374;2023-07-31T11:55:53;3.88;;;3.00;;
10461;SDS011;5278;42.656;23.374;2023-07-31T11:58:22;3.35;;;2.70;;
10461;SDS011;5278;42.656;23.374;2023-07-31T12:00:49;2.97;;;2.65;;
10461;SDS011;5278;42.656;23.374;2023-07-31T12:03:17;4.10;;;3.17;;
10461;SDS011;5278;42.656;23.374;2023-07-31T12:05:46;3.90;;;3.08;;
10461;SDS011;5278;42.656;23.374;2023-07-31T12:08:14;4.43;;;2.72;;
10461;SDS011;5278;42.656;23.374;2023-07-31T12:10:43;3.95;;;3.65;;
10461;SDS011;5278;42.656;23.374;2023-07-31T12:13:11;3.10;;;2.80;;
10461;SDS011;5278;42.656;23.374;2023-07-31T12:15:46;3.78;;;2.55;;
10461;SDS011;5278;42.656;23.374;2023-07-31T12:18:13;3.63;;;2.67;;
10461;SDS011;5278;42.656;23.374;2023-07-31T12:20:42;4.88;;;3.30;;
10461;SDS011;5278;42.656;23.374;2023-07-31T12:23:14;4.50;;;3.47;;
10461;SDS011;5278;42.656;23.374;2023-07-31T12:25:43;4.68;;;3.58;;
10461;SDS011;5278;42.656;23.374;2023-07-31T12:28:10;3.92;;;3.60;;
10461;SDS011;5278;42.656;23.374;2023-07-31T12:30:40;4.00;;;3.70;;
10461;SDS011;5278;42.656;23.374;2023-07-31T12:33:12;3.60;;;3.30;;
10461;SDS011;5278;42.656;23.374;2023-07-31T12:35:41;4.50;;;4.10;;
10461;SDS011;5278;42.656;23.374;2023-07-31T12:38:09;5.43;;;4.93;;
10461;SDS011;5278;42.656;23.374;2023-07-31T12:40:37;5.00;;;4.60;;
10461;SDS011;5278;42.656;23.374;2023-07-31T12:43:09;5.75;;;5.20;;
10461;SDS011;5278;42.656;23.374;2023-07-31T12:45:36;5.43;;;4.93;;
10461;SDS011;5278;42.656;23.374;2023-07-31T12:48:04;5.28;;;4.75;;
10461;SDS011;5278;42.656;23.374;2023-07-31T12:50:31;5.90;;;4.65;;
10461;SDS011;5278;42.656;23.374;2023-07-31T12:52:58;5.43;;;4.90;;
10461;SDS011;5278;42.656;23.374;2023-07-31T12:55:25;5.30;;;4.00;;
10461;SDS011;5278;42.656;23.374;2023-07-31T12:57:53;5.15;;;4.75;;
10461;SDS011;5278;42.656;23.374;2023-07-31T13:00:21;4.80;;;4.13;;
10461;SDS011;5278;42.656;23.374;2023-07-31T13:02:49;4.47;;;4.07;;
10461;SDS011;5278;42.656;23.374;2023-07-31T13:05:16;5.25;;;4.85;;
10461;SDS011;5278;42.656;23.374;2023-07-31T13:07:44;5.72;;;5.22;;
10461;SDS011;5278;42.656;23.374;2023-07-31T13:10:12;5.75;;;5.25;;
10461;SDS011;5278;42.656;23.374;2023-07-31T13:12:39;5.60;;;5.10;;
10461;SDS011;5278;42.656;23.374;2023-07-31T13:15:07;5.70;;;5.20;;
10461;SDS011;5278;42.656;23.374;2023-07-31T13:17:36;7.57;;;5.88;;
10461;SDS011;5278;42.656;23.374;2023-07-31T13:20:03;6.87;;;6.17;;
10461;SDS011;5278;42.656;23.374;2023-07-31T13:22:32;7.88;;;5.57;;
10461;SDS011;5278;42.656;23.374;2023-07-31T13:24:59;7.47;;;6.17;;
10461;SDS011;5278;42.656;23.374;2023-07-31T13:27:26;6.67;;;5.60;;
10461;SDS011;5278;42.656;23.374;2023-07-31T13:29:53;8.70;;;5.67;;
10461;SDS011;5278;42.656;23.374;2023-07-31T13:32:21;5.57;;;5.17;;
10461;SDS011;5278;42.656;23.374;2023-07-31T13:34:50;5.47;;;4.93;;
10461;SDS011;5278;42.656;23.374;2023-07-31T13:37:16;4.80;;;4.40;;
10461;SDS011;5278;42.656;23.374;2023-07-31T13:39:43;6.33;;;4.97;;
10461;SDS011;5278;42.656;23.374;2023-07-31T13:42:10;5.23;;;4.77;;
10461;SDS011;5278;42.656;23.374;2023-07-31T13:44:38;5.90;;;4.90;;
10461;SDS011;5278;42.656;23.374;2023-07-31T13:47:06;11.00;;;5.20;;
10461;SDS011;5278;42.656;23.374;2023-07-31T13:49:33;5.67;;;4.60;;
10461;SDS011;5278;42.656;23.374;2023-07-31T13:52:03;6.30;;;4.43;;
10461;SDS011;5278;42.656;23.374;2023-07-31T13:54:30;4.83;;;4.33;;
10461;SDS011;5278;42.656;23.374;2023-07-31T13:56:57;5.13;;;4.63;;
10461;SDS011;5278;42.656;23.374;2023-07-31T13:59:24;4.97;;;4.27;;
10461;SDS011;5278;42.656;23.374;2023-07-31T14:01:53;5.80;;;4.40;;
10461;SDS011;5278;42.656;23.374;2023-07-31T14:04:20;10.43;;;7.63;;
10461;SDS011;5278;42.656;23.374;2023-07-31T14:06:47;5.27;;;4.13;;
10461;SDS011;5278;42.656;23.374;2023-07-31T14:09:17;4.20;;;3.80;;
10461;SDS011;5278;42.656;23.374;2023-07-31T14:11:44;4.37;;;4.00;;
10461;SDS011;5278;42.656;23.374;2023-07-31T14:14:11;4.70;;;4.20;;
10461;SDS011;5278;42.656;23.374;2023-07-31T14:16:39;5.40;;;4.20;;
10461;SDS011;5278;42.656;23.374;2023-07-31T14:19:06;4.47;;;4.00;;
10461;SDS011;5278;42.656;23.374;2023-07-31T14:21:34;4.67;;;3.77;;
10461;SDS011;5278;42.656;23.374;2023-07-31T14:24:01;4.50;;;4.10;;
10461;SDS011;5278;42.656;23.374;2023-07-31T14:26:29;4.37;;;4.00;;
10461;SDS011;5278;42.656;23.374;2023-07-31T14:28:56;4.27;;;3.97;;
10461;SDS011;5278;42.656;23.374;2023-07-31T14:31:23;6.17;;;5.23;;
10461;SDS011;5278;42.656;23.374;2023-07-31T14:33:50;5.17;;;4.63;;
10461;SDS011;5278;42.656;23.374;2023-07-31T14:36:17;7.17;;;6.47;;
10461;SDS011;5278;42.656;23.374;2023-07-31T14:38:44;4.93;;;4.40;;
10461;SDS011;5278;42.656;23.374;2023-07-31T14:41:11;4.07;;;3.53;;
10461;SDS011;5278;42.656;23.374;2023-07-31T14:43:40;4.93;;;4.43;;
10461;SDS011;5278;42.656;23.374;2023-07-31T14:46:08;4.37;;;3.97;;
10461;SDS011;5278;42.656;23.374;2023-07-31T14:48:35;4.50;;;4.10;;